createdAt,value
2024-02-29T00:00:31.764Z,78.00
2024-02-29T00:01:31.775Z,77.90
2024-02-29T00:02:31.659Z,77.80
2024-02-29T00:03:31.663Z,77.70
2024-02-29T00:04:31.602Z,77.80
2024-02-29T00:07:31.577Z,77.80
2024-02-29T00:08:31.565Z,77.70
2024-02-29T00:09:31.567Z,77.60
2024-02-29T00:10:31.537Z,77.49
2024-02-29T00:11:31.575Z,77.39
2024-02-29T00:12:31.520Z,77.39
2024-02-29T00:13:31.515Z,77.49
2024-02-29T00:14:31.492Z,77.39
2024-02-29T00:15:31.538Z,77.39
2024-02-29T00:16:31.473Z,77.49
2024-02-29T00:17:31.493Z,77.49
2024-02-29T00:18:31.502Z,77.60
2024-02-29T00:19:31.442Z,77.49
2024-02-29T00:20:31.435Z,77.60
2024-02-29T00:21:31.443Z,77.39
2024-02-29T00:22:31.408Z,77.39
2024-02-29T00:23:31.418Z,77.39
2024-02-29T00:24:30.441Z,77.53
2024-02-29T00:25:30.299Z,77.63
2024-02-29T00:26:31.364Z,77.63
2024-02-29T00:27:31.363Z,77.63
2024-02-29T00:28:31.356Z,77.53
2024-02-29T00:29:31.332Z,77.42
2024-02-29T00:35:31.266Z,77.08
2024-02-29T00:36:31.312Z,77.11
2024-02-29T00:37:31.244Z,76.97
2024-02-29T00:38:31.240Z,77.08
2024-02-29T00:39:31.239Z,77.01
2024-02-29T00:40:31.220Z,76.87
2024-02-29T00:41:31.199Z,77.01
2024-02-29T00:42:31.212Z,77.01
2024-02-29T00:43:31.186Z,76.91
2024-02-29T00:44:31.175Z,77.01
2024-02-29T00:45:31.199Z,77.01
2024-02-29T00:46:31.150Z,77.01
2024-02-29T00:49:31.121Z,77.32
2024-02-29T00:50:31.124Z,77.42
2024-02-29T00:51:31.150Z,77.42
2024-02-29T00:52:31.082Z,77.53
2024-02-29T00:53:31.080Z,77.63
2024-02-29T00:54:31.106Z,77.63
2024-02-29T00:55:31.058Z,77.74
2024-02-29T00:56:31.039Z,77.94
2024-02-29T00:57:31.047Z,78.04
2024-02-29T00:58:31.019Z,78.14
2024-02-29T00:59:31.027Z,78.39
2024-02-29T01:00:31.099Z,78.49
2024-02-29T01:03:32.688Z,78.80
2024-02-29T01:04:30.969Z,78.80
2024-02-29T01:05:30.943Z,79.01
2024-02-29T01:06:30.969Z,79.15
2024-02-29T01:07:30.932Z,79.26
2024-02-29T01:08:30.928Z,79.15
2024-02-29T01:09:30.995Z,79.15
2024-02-29T01:10:30.901Z,79.36
2024-02-29T01:11:30.893Z,79.46
2024-02-29T01:12:30.929Z,79.56
2024-02-29T01:15:30.865Z,79.26
2024-02-29T01:16:30.826Z,79.15
2024-02-29T01:17:30.853Z,79.26
2024-02-29T01:18:30.864Z,79.26
2024-02-29T01:19:30.803Z,79.46
2024-02-29T01:20:30.790Z,79.36
2024-02-29T01:21:30.805Z,79.36
2024-02-29T01:22:30.774Z,79.36
2024-02-29T01:23:30.767Z,79.46
2024-02-29T01:24:30.807Z,79.66
2024-02-29T01:25:30.733Z,79.56
2024-02-29T01:27:30.734Z,79.36
2024-02-29T01:30:30.721Z,78.74
2024-02-29T01:31:30.670Z,78.74
2024-02-29T01:32:32.447Z,78.74
2024-02-29T01:33:30.736Z,78.63
2024-02-29T01:34:30.640Z,78.74
2024-02-29T01:35:30.625Z,78.84
2024-02-29T01:36:30.643Z,78.77
2024-02-29T01:37:30.601Z,78.74
2024-02-29T01:38:30.596Z,78.67
2024-02-29T01:39:30.610Z,78.67
2024-02-29T01:41:30.569Z,78.98
2024-02-29T01:42:30.573Z,78.98
2024-02-29T01:43:30.601Z,79.08
2024-02-29T01:44:30.533Z,78.98
2024-02-29T01:45:30.515Z,78.98
2024-02-29T01:46:30.505Z,78.88
2024-02-29T01:47:30.488Z,78.36
2024-02-29T01:48:30.564Z,78.15
2024-02-29T01:49:30.474Z,78.05
2024-02-29T01:50:30.467Z,78.15
2024-02-29T01:51:30.480Z,78.25
2024-02-29T01:53:30.429Z,78.36
2024-02-29T01:54:30.474Z,78.46
2024-02-29T01:55:30.405Z,78.67
2024-02-29T01:56:30.398Z,78.88
2024-02-29T01:57:30.398Z,79.08
2024-02-29T01:58:30.369Z,79.40
2024-02-29T01:59:30.371Z,79.50
2024-02-29T02:00:30.395Z,79.60
2024-02-29T02:01:30.470Z,79.70
2024-02-29T02:02:30.363Z,79.70
2024-02-29T02:03:30.362Z,79.80
2024-02-29T02:04:30.306Z,79.91
2024-02-29T02:05:30.307Z,80.01
2024-02-29T02:06:30.309Z,79.91
2024-02-29T02:07:30.289Z,79.91
2024-02-29T02:08:30.267Z,80.01
2024-02-29T02:09:30.315Z,80.01
2024-02-29T02:10:30.260Z,79.94
2024-02-29T02:11:30.303Z,79.94
2024-02-29T02:12:30.303Z,79.84
2024-02-29T02:13:30.228Z,79.60
2024-02-29T02:14:30.211Z,79.63
2024-02-29T02:15:30.208Z,79.74
2024-02-29T02:17:30.203Z,79.94
2024-02-29T02:18:30.208Z,79.84
2024-02-29T02:19:30.150Z,79.84
2024-02-29T02:20:30.139Z,79.84
2024-02-29T02:21:30.153Z,79.84
2024-02-29T02:22:30.267Z,79.74
2024-02-29T02:23:30.100Z,79.84
2024-02-29T02:24:30.116Z,79.94
2024-02-29T02:25:30.095Z,79.94
2024-02-29T02:26:30.069Z,79.84
2024-02-29T02:27:30.083Z,79.84
2024-02-29T02:28:30.048Z,79.84
2024-02-29T02:29:30.045Z,79.84
2024-02-29T02:30:30.050Z,79.63
2024-02-29T02:31:30.021Z,79.54
2024-02-29T02:32:30.026Z,79.63
2024-02-29T02:33:30.026Z,79.63
2024-02-29T02:34:29.991Z,79.54
2024-02-29T02:35:29.971Z,79.33
2024-02-29T02:36:29.987Z,79.47
2024-02-29T02:37:29.954Z,79.67
2024-02-29T02:38:29.959Z,79.67
2024-02-29T02:39:30.023Z,79.77
2024-02-29T02:40:29.930Z,79.57
2024-02-29T02:41:29.914Z,79.57
2024-02-29T02:42:29.919Z,79.77
2024-02-29T02:43:29.907Z,79.77
2024-02-29T02:44:29.909Z,79.77
2024-02-29T02:45:29.936Z,79.77
2024-02-29T02:46:29.856Z,79.67
2024-02-29T02:47:29.874Z,79.47
2024-02-29T02:49:29.819Z,78.85
2024-02-29T02:50:29.857Z,78.74
2024-02-29T02:51:29.920Z,78.33
2024-02-29T02:52:29.798Z,78.02
2024-02-29T02:53:29.789Z,77.91
2024-02-29T02:54:29.829Z,78.02
2024-02-29T02:55:29.765Z,78.43
2024-02-29T02:56:29.758Z,78.54
2024-02-29T02:57:29.855Z,78.74
2024-02-29T02:58:29.728Z,78.85
2024-02-29T02:59:29.714Z,78.95
2024-02-29T03:00:29.722Z,78.85
2024-02-29T03:01:29.729Z,78.74
2024-02-29T03:02:29.692Z,78.74
2024-02-29T03:03:29.684Z,78.95
2024-02-29T03:04:29.671Z,79.05
2024-02-29T03:05:29.650Z,79.16
2024-02-29T03:06:29.691Z,79.16
2024-02-29T03:07:29.634Z,78.95
2024-02-29T03:08:29.650Z,78.85
2024-02-29T03:09:29.620Z,78.54
2024-02-29T03:10:29.596Z,78.64
2024-02-29T03:11:29.645Z,78.54
2024-02-29T03:12:29.576Z,78.54
2024-02-29T03:13:29.570Z,78.43
2024-02-29T03:14:29.560Z,78.33
2024-02-29T03:15:29.551Z,78.12
2024-02-29T03:16:29.534Z,78.22
2024-02-29T03:17:29.563Z,78.22
2024-02-29T03:18:29.568Z,78.22
2024-02-29T03:19:29.499Z,78.12
2024-02-29T03:20:29.494Z,78.12
2024-02-29T03:21:29.555Z,78.26
2024-02-29T03:22:29.481Z,78.47
2024-02-29T03:23:29.473Z,78.57
2024-02-29T03:24:29.453Z,78.47
2024-02-29T03:25:29.433Z,78.47
2024-02-29T03:26:29.427Z,78.47
2024-02-29T03:27:29.417Z,78.68
2024-02-29T03:28:29.409Z,78.99
2024-02-29T03:29:29.399Z,79.09
2024-02-29T03:30:29.384Z,79.19
2024-02-29T03:31:29.373Z,79.30
2024-02-29T03:32:29.409Z,79.40
2024-02-29T03:33:29.349Z,79.51
2024-02-29T03:34:29.352Z,79.61
2024-02-29T03:35:29.323Z,79.81
2024-02-29T03:36:29.335Z,79.91
2024-02-29T03:37:29.303Z,79.91
2024-02-29T03:38:29.302Z,79.91
2024-02-29T03:39:29.291Z,79.91
2024-02-29T03:40:29.434Z,80.02
2024-02-29T03:41:29.266Z,80.02
2024-02-29T03:42:29.255Z,80.23
2024-02-29T03:43:29.252Z,80.23
2024-02-29T03:44:29.225Z,80.23
2024-02-29T03:45:29.226Z,80.33
2024-02-29T03:46:29.214Z,80.33
2024-02-29T03:47:29.216Z,80.43
2024-02-29T03:48:29.186Z,80.43
2024-02-29T03:49:29.170Z,80.64
2024-02-29T03:50:29.165Z,80.74
2024-02-29T03:51:29.155Z,80.85
2024-02-29T03:52:29.143Z,80.95
2024-02-29T03:53:29.127Z,81.06
2024-02-29T03:54:29.119Z,81.16
2024-02-29T03:55:29.133Z,81.26
2024-02-29T03:56:29.108Z,81.61
2024-02-29T03:57:29.085Z,81.71
2024-02-29T03:58:29.096Z,81.71
2024-02-29T03:59:29.061Z,81.92
2024-02-29T04:00:29.065Z,82.03
2024-02-29T04:01:29.105Z,82.13
2024-02-29T04:02:29.040Z,82.34
2024-02-29T04:03:29.019Z,82.44
2024-02-29T04:04:29.012Z,82.55
2024-02-29T04:05:28.994Z,82.55
2024-02-29T04:06:28.982Z,82.55
2024-02-29T04:07:28.987Z,82.65
2024-02-29T04:08:28.967Z,82.86
2024-02-29T04:09:28.952Z,82.86
2024-02-29T04:10:28.943Z,82.86
2024-02-29T04:11:28.964Z,82.86
2024-02-29T04:12:28.943Z,82.86
2024-02-29T04:13:28.913Z,82.86
2024-02-29T04:14:28.914Z,82.96
2024-02-29T04:15:28.887Z,82.96
2024-02-29T04:16:28.928Z,83.06
2024-02-29T04:17:28.902Z,83.06
2024-02-29T04:18:28.853Z,83.06
2024-02-29T04:19:28.844Z,83.06
2024-02-29T04:20:28.835Z,83.06
2024-02-29T04:21:28.821Z,83.17
2024-02-29T04:22:28.810Z,83.17
2024-02-29T04:23:28.809Z,83.17
2024-02-29T04:24:28.795Z,83.17
2024-02-29T04:25:28.777Z,83.17
2024-02-29T04:26:28.766Z,83.27
2024-02-29T04:27:28.755Z,83.27
2024-02-29T04:28:28.742Z,83.27
2024-02-29T04:29:28.735Z,83.27
2024-02-29T04:30:28.738Z,83.27
2024-02-29T04:31:28.716Z,83.38
2024-02-29T04:32:28.706Z,83.48
2024-02-29T04:33:28.697Z,83.48
2024-02-29T04:34:28.808Z,83.58
2024-02-29T04:35:28.704Z,83.58
2024-02-29T04:36:28.666Z,83.79
2024-02-29T04:37:28.648Z,83.79
2024-02-29T04:38:28.641Z,83.79
2024-02-29T04:39:28.629Z,83.89
2024-02-29T04:40:28.660Z,83.79
2024-02-29T04:41:28.604Z,83.89
2024-02-29T04:42:28.615Z,84.00
2024-02-29T04:43:28.591Z,84.10
2024-02-29T04:44:28.588Z,84.10
2024-02-29T04:45:28.561Z,84.10
2024-02-29T04:46:28.556Z,84.10
2024-02-29T04:47:28.576Z,84.10
2024-02-29T04:48:28.537Z,84.10
2024-02-29T04:49:28.517Z,84.21
2024-02-29T04:50:28.515Z,84.21
2024-02-29T04:51:28.522Z,84.21
2024-02-29T04:52:28.490Z,84.31
2024-02-29T04:53:28.476Z,84.41
2024-02-29T04:54:28.466Z,84.41
2024-02-29T04:55:28.452Z,84.52
2024-02-29T04:56:28.441Z,84.52
2024-02-29T04:57:28.436Z,84.52
2024-02-29T04:58:28.457Z,84.62
2024-02-29T04:59:28.409Z,84.62
2024-02-29T05:00:28.403Z,84.72
2024-02-29T05:01:28.483Z,84.77
2024-02-29T05:02:28.374Z,84.77
2024-02-29T05:03:28.370Z,84.72
2024-02-29T05:04:28.364Z,84.83
2024-02-29T05:05:28.345Z,84.87
2024-02-29T05:06:28.332Z,84.97
2024-02-29T05:07:28.333Z,85.18
2024-02-29T05:08:28.313Z,85.18
2024-02-29T05:09:28.298Z,85.29
2024-02-29T05:10:28.340Z,85.39
2024-02-29T05:11:28.306Z,85.49
2024-02-29T05:12:28.271Z,85.49
2024-02-29T05:13:28.265Z,85.49
2024-02-29T05:14:28.260Z,85.60
2024-02-29T05:15:28.240Z,85.60
2024-02-29T05:16:28.229Z,85.60
2024-02-29T05:17:28.263Z,85.60
2024-02-29T05:18:28.209Z,85.60
2024-02-29T05:19:28.202Z,85.70
2024-02-29T05:20:28.193Z,85.70
2024-02-29T05:21:28.184Z,85.70
2024-02-29T05:22:28.155Z,85.60
2024-02-29T05:23:28.153Z,85.60
2024-02-29T05:24:28.149Z,85.60
2024-02-29T05:25:28.127Z,85.70
2024-02-29T05:26:28.122Z,85.70
2024-02-29T05:27:28.115Z,85.60
2024-02-29T05:28:28.107Z,85.74
2024-02-29T05:29:28.089Z,85.74
2024-02-29T05:30:28.078Z,85.74
2024-02-29T05:31:28.068Z,85.74
2024-02-29T05:32:28.092Z,85.74
2024-02-29T05:33:28.040Z,85.74
2024-02-29T05:34:28.029Z,85.74
2024-02-29T05:35:28.028Z,85.74
2024-02-29T05:36:28.018Z,85.74
2024-02-29T05:37:28.119Z,85.74
2024-02-29T05:38:27.991Z,85.74
2024-02-29T05:39:27.983Z,85.74
2024-02-29T05:40:28.216Z,85.74
2024-02-29T05:41:27.961Z,85.74
2024-02-29T05:42:27.953Z,85.74
2024-02-29T05:43:27.934Z,85.74
2024-02-29T05:44:27.928Z,85.74
2024-02-29T05:45:27.915Z,85.74
2024-02-29T05:46:27.900Z,85.74
2024-02-29T05:47:27.928Z,85.84
2024-02-29T05:48:27.923Z,85.84
2024-02-29T05:49:27.908Z,85.84
2024-02-29T05:50:29.920Z,85.84
2024-02-29T05:51:27.874Z,85.84
2024-02-29T05:52:27.836Z,85.84
2024-02-29T05:53:27.826Z,85.74
2024-02-29T05:54:27.819Z,85.84
2024-02-29T05:55:27.805Z,85.77
2024-02-29T05:56:27.794Z,85.77
2024-02-29T05:57:27.876Z,85.77
2024-02-29T05:58:27.775Z,85.77
2024-02-29T05:59:27.760Z,85.77
2024-02-29T06:00:27.761Z,85.77
2024-02-29T06:01:27.847Z,85.77
2024-02-29T06:02:27.736Z,85.98
2024-02-29T06:03:27.737Z,85.98
2024-02-29T06:04:27.775Z,85.88
2024-02-29T06:05:27.699Z,85.88
2024-02-29T06:06:27.687Z,85.88
2024-02-29T06:07:27.686Z,85.88
2024-02-29T06:08:27.681Z,85.88
2024-02-29T06:09:27.663Z,85.77
2024-02-29T06:10:27.729Z,85.77
2024-02-29T06:11:27.672Z,85.67
2024-02-29T06:12:27.647Z,85.67
2024-02-29T06:13:27.609Z,85.67
2024-02-29T06:14:27.651Z,85.67
2024-02-29T06:15:27.610Z,85.67
2024-02-29T06:16:27.593Z,85.57
2024-02-29T06:17:27.608Z,85.57
2024-02-29T06:18:27.561Z,85.67
2024-02-29T06:19:27.556Z,85.67
2024-02-29T06:20:27.538Z,85.67
2024-02-29T06:21:27.528Z,85.57
2024-02-29T06:22:27.551Z,85.46
2024-02-29T06:23:27.504Z,85.46
2024-02-29T06:24:27.496Z,85.36
2024-02-29T06:25:27.543Z,85.26
2024-02-29T06:26:27.485Z,85.15
2024-02-29T06:27:27.462Z,85.15
2024-02-29T06:28:27.482Z,85.05
2024-02-29T06:29:27.445Z,84.84
2024-02-29T06:30:27.433Z,84.74
2024-02-29T06:31:27.472Z,84.74
2024-02-29T06:32:27.414Z,84.84
2024-02-29T06:33:27.401Z,84.74
2024-02-29T06:34:27.455Z,84.63
2024-02-29T06:35:27.393Z,84.63
2024-02-29T06:36:27.398Z,84.53
2024-02-29T06:37:27.361Z,84.42
2024-02-29T06:38:27.393Z,84.22
2024-02-29T06:39:27.370Z,84.22
2024-02-29T06:40:27.556Z,84.32
2024-02-29T06:41:27.308Z,84.22
2024-02-29T06:42:27.297Z,84.22
2024-02-29T06:43:28.673Z,84.01
2024-02-29T06:44:27.282Z,84.01
2024-02-29T06:45:27.306Z,83.80
2024-02-29T06:46:27.266Z,83.70
2024-02-29T06:47:27.295Z,83.59
2024-02-29T06:48:27.313Z,83.59
2024-02-29T06:49:27.237Z,83.49
2024-02-29T06:50:27.210Z,83.35
2024-02-29T06:51:27.335Z,83.14
2024-02-29T06:52:27.427Z,83.04
2024-02-29T06:53:27.211Z,83.18
2024-02-29T06:54:27.265Z,83.14
2024-02-29T06:55:27.324Z,83.14
2024-02-29T06:56:27.201Z,83.04
2024-02-29T06:57:27.206Z,82.73
2024-02-29T06:58:27.315Z,82.62
2024-02-29T06:59:27.139Z,82.52
2024-02-29T07:00:27.105Z,82.62
2024-02-29T07:01:27.258Z,82.17
2024-02-29T07:02:27.117Z,81.97
2024-02-29T07:03:27.164Z,81.97
2024-02-29T07:04:27.093Z,81.86
2024-02-29T07:05:27.075Z,81.79
2024-02-29T07:06:27.045Z,81.86
2024-02-29T07:07:27.030Z,81.76
2024-02-29T07:08:27.023Z,81.65
2024-02-29T07:09:27.006Z,81.45
2024-02-29T07:10:27.080Z,81.45
2024-02-29T07:11:27.053Z,81.34
2024-02-29T07:12:26.990Z,81.09
2024-02-29T07:13:26.983Z,80.88
2024-02-29T07:14:26.961Z,80.88
2024-02-29T07:15:26.948Z,80.68
2024-02-29T07:16:27.065Z,80.57
2024-02-29T07:17:26.947Z,80.37
2024-02-29T07:18:26.912Z,80.16
2024-02-29T07:19:26.931Z,80.16
2024-02-29T07:20:28.816Z,80.02
2024-02-29T07:21:26.887Z,80.02
2024-02-29T07:22:26.985Z,79.91
2024-02-29T07:23:26.853Z,79.71
2024-02-29T07:24:26.892Z,79.51
2024-02-29T07:25:26.879Z,79.37
2024-02-29T07:26:26.824Z,79.16
2024-02-29T07:27:26.866Z,78.95
2024-02-29T07:28:26.797Z,78.74
2024-02-29T07:29:26.794Z,78.71
2024-02-29T07:30:26.809Z,78.60
2024-02-29T07:31:26.865Z,78.19
2024-02-29T07:32:26.782Z,78.29
2024-02-29T07:33:26.750Z,77.98
2024-02-29T07:34:26.773Z,77.84
2024-02-29T07:35:26.736Z,77.84
2024-02-29T07:36:26.723Z,77.53
2024-02-29T07:37:26.775Z,77.63
2024-02-29T07:38:26.721Z,77.42
2024-02-29T07:39:26.683Z,77.22
2024-02-29T07:40:26.732Z,77.08
2024-02-29T07:41:26.689Z,76.77
2024-02-29T07:42:26.679Z,76.67
2024-02-29T07:43:26.714Z,76.46
2024-02-29T07:44:26.647Z,76.36
2024-02-29T07:45:26.616Z,76.01
2024-02-29T07:46:26.629Z,75.84
2024-02-29T07:47:26.690Z,75.80
2024-02-29T07:48:26.610Z,75.90
2024-02-29T07:49:26.579Z,75.80
2024-02-29T07:50:26.574Z,75.50
2024-02-29T07:51:26.555Z,75.46
2024-02-29T07:52:26.623Z,74.84
2024-02-29T07:53:26.551Z,74.43
2024-02-29T07:54:26.536Z,74.43
2024-02-29T07:55:26.553Z,74.32
2024-02-29T07:56:28.739Z,74.32
2024-02-29T07:57:26.491Z,73.80
2024-02-29T07:58:26.509Z,73.36
2024-02-29T07:59:26.481Z,73.26
2024-02-29T08:00:26.494Z,73.05
2024-02-29T08:01:26.558Z,73.15
2024-02-29T08:02:26.437Z,73.26
2024-02-29T08:03:26.420Z,73.26
2024-02-29T08:04:26.438Z,73.32
2024-02-29T08:05:26.443Z,73.05
2024-02-29T08:06:26.645Z,73.05
2024-02-29T08:07:26.485Z,73.01
2024-02-29T08:08:26.372Z,73.12
2024-02-29T08:09:26.359Z,73.12
2024-02-29T08:10:26.388Z,73.22
2024-02-29T08:11:26.373Z,73.12
2024-02-29T08:12:26.325Z,73.01
2024-02-29T08:13:26.371Z,72.60
2024-02-29T08:14:26.329Z,72.50
2024-02-29T08:15:26.316Z,72.36
2024-02-29T08:16:26.348Z,72.57
2024-02-29T08:17:26.337Z,72.36
2024-02-29T08:18:26.272Z,72.25
2024-02-29T08:19:26.291Z,72.15
2024-02-29T08:20:26.261Z,71.85
2024-02-29T08:21:26.219Z,72.15
2024-02-29T08:22:26.347Z,71.95
2024-02-29T08:23:26.200Z,72.05
2024-02-29T08:24:26.279Z,72.22
2024-02-29T08:25:26.206Z,72.02
2024-02-29T08:26:26.175Z,71.71
2024-02-29T08:27:26.164Z,71.60
2024-02-29T08:28:26.199Z,71.60
2024-02-29T08:29:26.134Z,71.50
2024-02-29T08:30:26.156Z,71.40
2024-02-29T08:31:26.189Z,71.40
2024-02-29T08:32:26.183Z,71.40
2024-02-29T08:33:26.118Z,70.78
2024-02-29T08:34:26.113Z,70.67
2024-02-29T08:35:26.091Z,70.57
2024-02-29T08:36:26.086Z,70.57
2024-02-29T08:37:26.082Z,70.06
2024-02-29T08:38:30.505Z,70.23
2024-02-29T08:39:26.032Z,70.03
2024-02-29T08:40:26.069Z,69.72
2024-02-29T08:41:26.045Z,69.72
2024-02-29T08:42:25.998Z,69.58
2024-02-29T08:43:26.065Z,69.06
2024-02-29T08:44:25.976Z,68.65
2024-02-29T08:45:25.972Z,68.31
2024-02-29T08:46:26.053Z,68.00
2024-02-29T08:47:25.966Z,67.90
2024-02-29T08:48:25.952Z,67.90
2024-02-29T08:49:25.983Z,68.00
2024-02-29T08:50:25.923Z,68.00
2024-02-29T08:51:25.919Z,67.90
2024-02-29T08:52:25.977Z,68.00
2024-02-29T08:53:25.886Z,68.31
2024-02-29T08:54:25.880Z,68.31
2024-02-29T08:55:25.968Z,68.21
2024-02-29T08:56:25.849Z,68.21
2024-02-29T08:57:25.830Z,68.42
2024-02-29T08:58:25.864Z,68.62
2024-02-29T08:59:25.814Z,68.59
2024-02-29T09:00:25.819Z,67.97
2024-02-29T09:01:25.867Z,67.46
2024-02-29T09:02:25.806Z,67.66
2024-02-29T09:03:25.793Z,67.56
2024-02-29T09:04:25.805Z,67.25
2024-02-29T09:05:25.835Z,67.43
2024-02-29T09:06:28.173Z,67.01
2024-02-29T09:07:25.783Z,66.80
2024-02-29T09:08:25.709Z,66.60
2024-02-29T09:09:25.703Z,66.29
2024-02-29T09:10:25.928Z,66.50
2024-02-29T09:11:25.719Z,66.05
2024-02-29T09:12:25.671Z,66.16
2024-02-29T09:13:30.839Z,65.64
2024-02-29T09:14:25.683Z,65.95
2024-02-29T09:15:25.731Z,65.75
2024-02-29T09:16:25.747Z,65.44
2024-02-29T09:17:25.627Z,65.41
2024-02-29T09:18:25.612Z,65.13
2024-02-29T09:19:25.855Z,65.51
2024-02-29T09:20:25.588Z,65.41
2024-02-29T09:21:25.584Z,65.20
2024-02-29T09:22:25.609Z,64.86
2024-02-29T09:23:25.567Z,64.66
2024-02-29T09:24:25.545Z,64.66
2024-02-29T09:25:25.724Z,64.55
2024-02-29T09:26:25.529Z,64.69
2024-02-29T09:27:25.525Z,65.30
2024-02-29T09:28:25.570Z,65.51
2024-02-29T09:29:27.293Z,65.30
2024-02-29T09:30:25.478Z,65.30
2024-02-29T09:31:25.608Z,65.51
2024-02-29T09:32:25.455Z,65.17
2024-02-29T09:33:25.466Z,64.76
2024-02-29T09:34:25.513Z,64.25
2024-02-29T09:35:25.427Z,64.76
2024-02-29T09:36:25.414Z,64.14
2024-02-29T09:37:25.474Z,63.94
2024-02-29T09:38:25.409Z,64.04
2024-02-29T09:39:25.471Z,63.83
2024-02-29T09:40:27.081Z,63.53
2024-02-29T09:41:40.933Z,63.73
2024-02-29T09:42:25.360Z,63.73
2024-02-29T09:43:25.331Z,63.73
2024-02-29T09:44:25.328Z,63.50
2024-02-29T09:45:25.886Z,64.42
2024-02-29T09:46:25.349Z,64.19
2024-02-29T09:47:25.315Z,63.57
2024-02-29T09:48:25.290Z,65.08
2024-02-29T09:49:25.274Z,66.11
2024-02-29T09:50:25.258Z,61.58
2024-02-29T09:51:25.311Z,60.96
2024-02-29T09:52:25.343Z,61.17
2024-02-29T09:53:25.421Z,61.17
2024-02-29T09:54:25.217Z,61.37
2024-02-29T09:55:25.260Z,60.66
2024-02-29T09:56:25.254Z,60.76
2024-02-29T09:57:25.193Z,61.14
2024-02-29T09:58:25.204Z,59.60
2024-02-29T09:59:25.176Z,59.30
2024-02-29T10:00:25.155Z,59.40
2024-02-29T10:01:25.220Z,58.78
2024-02-29T10:02:25.140Z,58.99
2024-02-29T10:03:25.124Z,59.09
2024-02-29T10:04:25.163Z,59.09
2024-02-29T10:05:25.123Z,59.30
2024-02-29T10:06:25.100Z,59.17
2024-02-29T10:07:25.155Z,59.17
2024-02-29T10:08:25.079Z,59.68
2024-02-29T10:09:25.067Z,59.78
2024-02-29T10:10:25.175Z,59.60
2024-02-29T10:11:25.107Z,59.91
2024-02-29T10:12:25.068Z,60.22
2024-02-29T10:13:25.178Z,60.63
2024-02-29T10:14:25.036Z,60.35
2024-02-29T10:15:25.010Z,60.76
2024-02-29T10:16:27.032Z,60.15
2024-02-29T10:17:25.095Z,60.04
2024-02-29T10:18:24.957Z,60.01
2024-02-29T10:19:25.075Z,60.01
2024-02-29T10:20:24.938Z,59.50
2024-02-29T10:21:24.941Z,60.22
2024-02-29T10:22:24.954Z,60.55
2024-02-29T10:23:24.940Z,61.27
2024-02-29T10:24:25.060Z,61.68
2024-02-29T10:25:24.990Z,61.24
2024-02-29T10:26:24.867Z,60.83
2024-02-29T10:27:24.866Z,60.96
2024-02-29T10:28:24.899Z,61.27
2024-02-29T10:29:26.920Z,61.92
2024-02-29T10:30:24.840Z,62.12
2024-02-29T10:31:24.847Z,62.43
2024-02-29T10:32:24.811Z,62.32
2024-02-29T10:33:24.904Z,62.19
2024-02-29T10:34:24.933Z,62.09
2024-02-29T10:35:24.808Z,61.78
2024-02-29T10:36:24.808Z,61.81
2024-02-29T10:37:24.807Z,62.32
2024-02-29T10:38:24.745Z,62.63
2024-02-29T10:39:24.723Z,62.94
2024-02-29T10:40:24.764Z,63.12
2024-02-29T10:41:24.711Z,62.29
2024-02-29T10:42:24.699Z,61.78
2024-02-29T10:43:24.693Z,61.58
2024-02-29T10:44:24.677Z,61.99
2024-02-29T10:45:26.694Z,62.32
2024-02-29T10:46:24.707Z,62.43
2024-02-29T10:47:24.828Z,62.43
2024-02-29T10:48:24.632Z,62.70
2024-02-29T10:49:24.668Z,62.40
2024-02-29T10:50:24.606Z,62.09
2024-02-29T10:51:27.085Z,62.17
2024-02-29T10:52:24.688Z,61.96
2024-02-29T10:53:24.600Z,61.96
2024-02-29T10:54:24.561Z,61.73
2024-02-29T10:55:24.671Z,61.24
2024-02-29T10:56:24.532Z,61.24
2024-02-29T10:57:24.521Z,61.45
2024-02-29T10:58:24.580Z,61.55
2024-02-29T10:59:24.506Z,61.55
2024-02-29T11:00:24.500Z,61.99
2024-02-29T11:01:24.619Z,62.47
2024-02-29T11:02:24.505Z,61.96
2024-02-29T11:03:24.467Z,61.55
2024-02-29T11:04:24.534Z,61.58
2024-02-29T11:05:24.541Z,61.58
2024-02-29T11:06:24.438Z,62.02
2024-02-29T11:07:24.470Z,62.09
2024-02-29T11:08:24.403Z,62.40
2024-02-29T11:09:27.466Z,62.09
2024-02-29T11:10:24.485Z,62.09
2024-02-29T11:11:24.431Z,61.68
2024-02-29T11:12:24.361Z,61.88
2024-02-29T11:13:24.425Z,61.58
2024-02-29T11:14:24.353Z,61.68
2024-02-29T11:15:25.070Z,61.78
2024-02-29T11:16:24.392Z,61.88
2024-02-29T11:17:24.421Z,61.55
2024-02-29T11:18:24.311Z,61.34
2024-02-29T11:19:24.395Z,61.24
2024-02-29T11:20:24.279Z,61.34
2024-02-29T11:21:24.302Z,60.93
2024-02-29T11:22:24.301Z,60.91
2024-02-29T11:23:24.233Z,61.01
2024-02-29T11:24:24.407Z,60.40
2024-02-29T11:25:24.304Z,60.19
2024-02-29T11:26:24.208Z,60.26
2024-02-29T11:27:24.199Z,60.16
2024-02-29T11:28:24.343Z,59.65
2024-02-29T11:29:24.196Z,59.35
2024-02-29T11:30:24.182Z,59.32
2024-02-29T11:31:24.244Z,59.52
2024-02-29T11:32:24.163Z,59.32
2024-02-29T11:33:24.305Z,58.78
2024-02-29T11:34:24.278Z,58.67
2024-02-29T11:35:24.151Z,58.27
2024-02-29T11:36:24.127Z,58.16
2024-02-29T11:37:27.084Z,58.16
2024-02-29T11:38:29.282Z,58.06
2024-02-29T11:39:24.081Z,57.96
2024-02-29T11:40:24.203Z,57.75
2024-02-29T11:41:24.117Z,57.96
2024-02-29T11:42:24.114Z,58.06
2024-02-29T11:43:26.111Z,57.65
2024-02-29T11:44:24.019Z,57.45
2024-02-29T11:45:24.079Z,57.55
2024-02-29T11:46:24.012Z,57.55
2024-02-29T11:47:23.987Z,57.96
2024-02-29T11:48:23.972Z,57.83
2024-02-29T11:49:24.126Z,57.62
2024-02-29T11:50:23.952Z,57.22
2024-02-29T11:51:23.925Z,57.09
2024-02-29T11:52:23.988Z,57.09
2024-02-29T11:53:23.907Z,57.29
2024-02-29T11:54:26.826Z,57.19
2024-02-29T11:55:24.035Z,57.19
2024-02-29T11:56:23.883Z,56.48
2024-02-29T11:57:23.889Z,56.68
2024-02-29T11:58:23.936Z,56.78
2024-02-29T11:59:23.845Z,56.98
2024-02-29T12:00:23.844Z,56.68
2024-02-29T12:01:23.896Z,56.48
2024-02-29T12:02:23.826Z,56.07
2024-02-29T12:03:23.800Z,56.37
2024-02-29T12:04:23.892Z,56.78
2024-02-29T12:05:23.780Z,56.78
2024-02-29T12:06:23.787Z,56.98
2024-02-29T12:07:23.828Z,56.48
2024-02-29T12:08:23.767Z,56.14
2024-02-29T12:09:23.734Z,55.76
2024-02-29T12:10:23.846Z,55.86
2024-02-29T12:11:23.792Z,56.07
2024-02-29T12:12:23.740Z,56.04
2024-02-29T12:13:23.783Z,56.35
2024-02-29T12:14:23.740Z,56.45
2024-02-29T12:15:23.669Z,56.32
2024-02-29T12:16:23.749Z,55.91
2024-02-29T12:17:23.661Z,55.51
2024-02-29T12:18:23.648Z,55.71
2024-02-29T12:19:23.650Z,55.71
2024-02-29T12:20:23.643Z,55.51
2024-02-29T12:21:23.617Z,55.38
2024-02-29T12:22:23.679Z,55.17
2024-02-29T12:23:23.588Z,55.17
2024-02-29T12:24:23.743Z,55.38
2024-02-29T12:25:23.636Z,55.38
2024-02-29T12:26:23.568Z,54.97
2024-02-29T12:27:23.545Z,55.30
2024-02-29T12:28:23.662Z,55.40
2024-02-29T12:29:23.538Z,54.89
2024-02-29T12:30:23.514Z,55.20
2024-02-29T12:31:23.574Z,55.17
2024-02-29T12:32:23.563Z,55.17
2024-02-29T12:33:25.767Z,55.27
2024-02-29T12:34:23.489Z,55.17
2024-02-29T12:35:23.467Z,55.07
2024-02-29T12:36:23.516Z,54.99
2024-02-29T12:37:23.557Z,55.10
2024-02-29T12:38:23.480Z,54.99
2024-02-29T12:39:23.417Z,55.20
2024-02-29T12:40:23.457Z,54.76
2024-02-29T12:41:23.435Z,54.76
2024-02-29T12:42:23.404Z,54.79
2024-02-29T12:43:23.462Z,54.76
2024-02-29T12:44:23.373Z,55.17
2024-02-29T12:45:23.355Z,54.97
2024-02-29T12:46:23.410Z,55.17
2024-02-29T12:47:23.444Z,55.30
2024-02-29T12:48:23.366Z,55.07
2024-02-29T12:49:23.448Z,55.27
2024-02-29T12:50:23.347Z,55.07
2024-02-29T12:51:23.314Z,55.27
2024-02-29T12:52:23.452Z,54.97
2024-02-29T12:53:23.418Z,54.87
2024-02-29T12:54:23.287Z,54.97
2024-02-29T12:55:23.388Z,54.87
2024-02-29T12:56:23.239Z,54.87
2024-02-29T12:57:23.364Z,54.66
2024-02-29T12:58:23.363Z,54.66
2024-02-29T12:59:23.233Z,54.87
2024-02-29T13:00:23.188Z,54.97
2024-02-29T13:01:23.297Z,54.76
2024-02-29T13:02:23.225Z,54.97
2024-02-29T13:03:23.161Z,55.07
2024-02-29T13:04:23.245Z,54.97
2024-02-29T13:05:23.238Z,54.76
2024-02-29T13:06:23.118Z,54.76
2024-02-29T13:07:23.220Z,54.87
2024-02-29T13:08:23.316Z,55.07
2024-02-29T13:09:23.100Z,54.66
2024-02-29T13:10:23.177Z,54.66
2024-02-29T13:11:23.197Z,54.66
2024-02-29T13:12:23.096Z,54.76